Portada
METAR-TAF:

METAR-TAF

Aeropuertos :

Aeropuerto Internacional Ngurah Rai

Denpasar, Indonesia

latitud: 08-44-53S, longitud: 115-10-03E, altitud: 4 m

Observación

El informe se hizo hace 33 minutos, a las 06:00 UTC
Viento 14 kt del este-sureste
Temperatura 29°C
Humedad 74%
Presión 1011 hPa
Visibilidad 10 km o más
Escasas nubes a una altura de 1700 ft

METAR: WADD 230600Z 12014KT 9999 FEW017 29/24 Q1011 NOSIG

Hora: 13:33 (06:33 UTC)

Pronóstico

El informe se hizo hace 1 hora y 33 minutos, a las 05:00 UTC
Pronóstico válido del 23 a las 06 UTC al 24 a las 06 UTC
Viento 11 kt del este-sureste
Visibilidad 10 km o más
Nubes dispersas a una altura de 1600 ft

TAF: WADD 230500Z 2306/2406 12011KT 9999 SCT016

Observaciones y pronósticos meteorológicos de más de 4000 aeropuertos (mensajes METAR y TAF).

Los puntos amarillos y rojos representan las estaciones disponibles.

Ponga el ratón en el punto deseado para ver el nombre de la estación.

Haga clic para ver las observaciones y los pronósticos meteorológicos.

Para cambiar el mapa : haga clic en los botones verdes con una cruz de color negro para hacer un zoom, en el botón verde con un guión para alejar o en las flechas verdes para mapas adyacentes.


METAR-TAF: